Time;durP1;ratioP1;P1;durP2;ratioP2;P2;SDS_P1;SDS_P2;PMS_P1;PMS_P2;Temp;Humidity;BMP_temperature;BMP_pressure;BME280_temperature;BME280_humidity;BME280_pressure;Samples;Min_cycle;Max_cycle;Signal;HPM_P1;HPM_P2
2022/04/26 03:37:26;;;;;;;9.07;4.25;;;7.90;99.90;;;;;;5073401;28;20040;-75
2022/04/26 03:39:52;;;;;;;8.05;3.15;;;7.80;99.90;;;;;;5065302;28;20397;-75
2022/04/26 03:42:17;;;;;;;13.00;3.80;;;7.80;99.90;;;;;;5065668;28;20120;-75
2022/04/26 03:44:43;;;;;;;7.47;3.88;;;7.80;99.90;;;;;;5071723;28;20434;-75
2022/04/26 03:47:09;;;;;;;6.80;3.58;;;7.70;99.90;;;;;;5073272;28;20529;-75
2022/04/26 03:49:35;;;;;;;11.32;3.97;;;7.70;99.90;;;;;;5072972;28;20523;-75
2022/04/26 03:52:01;;;;;;;9.25;4.35;;;7.60;99.90;;;;;;5065386;28;20366;-75
2022/04/26 03:54:26;;;;;;;8.98;4.07;;;7.60;99.90;;;;;;5073230;28;20039;-75
2022/04/26 03:56:52;;;;;;;11.40;4.20;;;7.60;99.90;;;;;;5070801;28;20429;-75
2022/04/26 03:59:21;;;;;;;10.63;4.28;;;7.60;99.90;;;;;;5072394;28;20028;-74
2022/04/26 04:01:47;;;;;;;8.57;3.65;;;7.60;99.90;;;;;;5069354;28;20059;-75
2022/04/26 04:04:14;;;;;;;13.25;4.32;;;7.60;99.90;;;;;;5069057;28;20519;-75
2022/04/26 04:06:39;;;;;;;9.75;3.92;;;7.60;99.90;;;;;;5069292;28;20066;-75
2022/04/26 04:09:05;;;;;;;9.35;4.75;;;7.50;99.90;;;;;;5069498;28;20497;-75
2022/04/26 04:11:30;;;;;;;9.65;4.97;;;7.50;99.90;;;;;;5069752;28;20029;-75
2022/04/26 04:13:56;;;;;;;10.60;4.57;;;7.50;99.90;;;;;;5070344;28;20393;-75
2022/04/26 04:16:21;;;;;;;9.35;4.30;;;7.60;99.90;;;;;;5073242;28;20036;-75
2022/04/26 04:19:30;;;;;;;13.48;4.50;;;7.60;99.90;;;;;;5068739;28;20024;-74
2022/04/26 04:21:35;;;;;;;8.63;4.68;;;7.60;99.90;;;;;;5054791;28;20638;-74
2022/04/26 04:24:01;;;;;;;10.27;4.18;;;7.60;99.90;;;;;;5070341;28;20115;-74
2022/04/26 04:26:27;;;;;;;14.88;5.05;;;7.60;99.90;;;;;;5069759;28;20527;-74
2022/04/26 04:28:52;;;;;;;8.15;4.22;;;7.60;99.90;;;;;;5070881;28;20135;-75
2022/04/26 04:31:18;;;;;;;12.05;4.43;;;7.60;99.90;;;;;;5071236;28;20606;-75
2022/04/26 04:33:43;;;;;;;10.52;4.90;;;7.70;99.90;;;;;;5070556;28;20441;-75
2022/04/26 04:36:10;;;;;;;7.80;4.85;;;7.70;99.90;;;;;;5067264;28;20055;-75
2022/04/26 04:38:35;;;;;;;8.85;4.30;;;7.70;99.90;;;;;;5069408;28;20056;-75
2022/04/26 04:41:01;;;;;;;12.48;5.20;;;7.80;99.90;;;;;;5070844;28;20110;-75
2022/04/26 04:43:26;;;;;;;10.45;4.35;;;7.80;99.90;;;;;;5071165;28;20047;-75
2022/04/26 04:45:52;;;;;;;9.00;4.85;;;7.80;99.90;;;;;;5071738;28;20021;-75
2022/04/26 04:48:20;;;;;;;8.15;4.35;;;7.80;99.90;;;;;;5069873;28;20111;-75
2022/04/26 04:50:45;;;;;;;8.80;4.47;;;7.80;99.90;;;;;;5070335;28;20044;-75
2022/04/26 04:53:11;;;;;;;15.27;5.95;;;7.90;99.90;;;;;;5071692;28;20158;-75
2022/04/26 04:55:40;;;;;;;10.48;4.93;;;7.90;99.90;;;;;;5055041;28;20423;-75
2022/04/26 04:58:06;;;;;;;7.85;4.82;;;7.90;99.90;;;;;;5068054;28;20025;-75
2022/04/26 05:00:31;;;;;;;10.10;4.82;;;7.90;99.90;;;;;;5064607;28;20027;-75
2022/04/26 05:02:57;;;;;;;8.25;4.32;;;7.90;99.90;;;;;;5068764;28;20033;-75
2022/04/26 05:05:23;;;;;;;8.60;4.65;;;7.90;99.90;;;;;;5068677;28;20028;-75
2022/04/26 05:07:50;;;;;;;11.98;4.63;;;8.00;99.90;;;;;;5067730;28;20074;-75
2022/04/26 05:10:15;;;;;;;10.07;5.07;;;8.00;99.90;;;;;;5063972;28;20037;-74
2022/04/26 05:12:44;;;;;;;8.43;4.47;;;8.00;99.90;;;;;;5044598;28;20032;-75
2022/04/26 05:15:10;;;;;;;9.80;4.72;;;8.00;99.90;;;;;;5053844;28;20025;-74
2022/04/26 05:17:35;;;;;;;12.00;5.20;;;8.00;99.90;;;;;;5062273;28;20052;-75
2022/04/26 05:20:01;;;;;;;11.43;5.57;;;8.10;99.90;;;;;;5069905;28;20044;-75
2022/04/26 05:22:27;;;;;;;14.77;5.60;;;8.10;99.90;;;;;;5062860;28;20106;-76
2022/04/26 05:24:58;;;;;;;8.60;4.32;;;8.10;99.90;;;;;;5062344;28;20052;-75
2022/04/26 05:27:31;;;;;;;14.13;6.33;;;8.10;99.90;;;;;;5063881;28;20028;-75
2022/04/26 05:29:57;;;;;;;13.63;6.55;;;8.20;99.90;;;;;;5061606;28;20025;-75
2022/04/26 05:32:27;;;;;;;11.02;5.70;;;8.20;99.90;;;;;;5068316;28;20029;-76
2022/04/26 05:35:02;;;;;;;14.93;6.60;;;8.20;99.90;;;;;;5065643;28;20094;-74
2022/04/26 05:37:31;;;;;;;14.02;7.00;;;8.20;99.90;;;;;;5059178;28;20036;-75
2022/04/26 05:40:04;;;;;;;16.27;7.65;;;8.20;99.90;;;;;;5056549;28;20366;-74
2022/04/26 05:42:30;;;;;;;14.32;6.22;;;8.30;99.90;;;;;;5069620;28;20074;-76
2022/04/26 05:44:56;;;;;;;13.27;6.68;;;8.40;99.90;;;;;;5069088;28;20029;-76
2022/04/26 05:47:22;;;;;;;10.75;6.32;;;8.40;99.90;;;;;;5065542;28;20030;-75
2022/04/26 05:49:48;;;;;;;13.45;7.40;;;8.40;99.90;;;;;;5066730;28;20096;-76
2022/04/26 05:52:13;;;;;;;11.60;6.97;;;8.30;99.90;;;;;;5056880;28;20025;-75
2022/04/26 05:54:39;;;;;;;11.48;7.07;;;8.30;99.90;;;;;;5051604;28;20024;-75
2022/04/26 05:57:05;;;;;;;12.65;7.80;;;8.30;99.90;;;;;;5052005;28;20116;-76
2022/04/26 05:59:31;;;;;;;11.75;7.63;;;8.30;99.90;;;;;;5071585;28;20392;-75
2022/04/26 06:01:56;;;;;;;16.52;7.47;;;8.40;99.90;;;;;;5070703;28;20021;-75
2022/04/26 06:04:24;;;;;;;14.63;8.35;;;8.40;99.90;;;;;;5052771;28;20044;-75
2022/04/26 06:06:50;;;;;;;13.13;7.80;;;8.40;99.90;;;;;;5069031;28;20028;-75
2022/04/26 06:09:16;;;;;;;14.93;8.10;;;8.50;99.90;;;;;;5076094;28;20424;-75
2022/04/26 06:11:41;;;;;;;16.92;8.38;;;8.50;99.90;;;;;;5065326;28;20012;-75
2022/04/26 06:14:07;;;;;;;10.25;8.48;;;8.50;99.90;;;;;;5068206;28;20104;-74
2022/04/26 06:16:33;;;;;;;12.57;9.00;;;8.60;99.90;;;;;;5064833;28;20391;-74
2022/04/26 06:18:58;;;;;;;12.07;7.88;;;8.60;99.90;;;;;;5066596;28;20036;-75
2022/04/26 06:21:24;;;;;;;13.82;8.02;;;8.70;99.90;;;;;;5067165;28;20049;-74
2022/04/26 06:23:50;;;;;;;15.27;8.40;;;8.70;99.90;;;;;;5066540;28;20430;-74
2022/04/26 06:26:15;;;;;;;14.60;7.55;;;8.80;99.90;;;;;;5052933;28;20080;-75
2022/04/26 06:28:41;;;;;;;15.35;7.85;;;8.80;99.90;;;;;;5069981;28;20510;-74
2022/04/26 06:31:06;;;;;;;14.40;7.43;;;8.80;99.90;;;;;;5070890;28;20071;-74
2022/04/26 06:33:34;;;;;;;12.02;7.25;;;8.90;99.90;;;;;;5069885;28;20020;-74
2022/04/26 06:36:00;;;;;;;13.60;7.70;;;9.00;99.90;;;;;;5068061;28;20028;-74
2022/04/26 06:38:29;;;;;;;15.25;7.70;;;9.10;99.90;;;;;;5070697;28;20060;-75
2022/04/26 06:40:54;;;;;;;12.35;7.10;;;9.10;99.90;;;;;;5069941;28;20024;-75
2022/04/26 06:43:20;;;;;;;14.93;7.28;;;9.20;99.90;;;;;;5068470;28;20369;-74
2022/04/26 06:45:46;;;;;;;15.25;7.20;;;9.20;99.90;;;;;;5067365;28;20017;-75
2022/04/26 06:48:13;;;;;;;14.65;7.93;;;9.30;99.90;;;;;;5070541;28;20438;-74
2022/04/26 06:50:39;;;;;;;12.30;6.68;;;9.40;99.90;;;;;;5068999;28;20039;-75
2022/04/26 06:53:08;;;;;;;13.73;6.60;;;9.50;99.90;;;;;;5052994;28;20060;-74
2022/04/26 06:55:34;;;;;;;11.45;6.65;;;9.60;99.90;;;;;;5064932;28;20035;-74
2022/04/26 06:57:59;;;;;;;14.68;7.25;;;9.70;99.90;;;;;;5069594;28;20476;-74
2022/04/26 07:00:25;;;;;;;13.45;6.45;;;9.70;99.90;;;;;;5069555;28;20036;-74
2022/04/26 07:02:51;;;;;;;12.60;6.50;;;9.90;99.90;;;;;;5052757;28;20032;-74
2022/04/26 07:05:17;;;;;;;13.48;6.28;;;10.00;99.90;;;;;;5069233;28;20484;-74
2022/04/26 07:07:43;;;;;;;11.27;5.32;;;10.00;99.90;;;;;;5070009;28;20361;-73
2022/04/26 07:10:09;;;;;;;13.88;5.72;;;10.10;99.90;;;;;;5070396;28;20050;-74
2022/04/26 07:12:35;;;;;;;11.13;5.93;;;10.20;99.90;;;;;;5068966;28;20028;-75
2022/04/26 07:15:01;;;;;;;13.75;4.97;;;10.20;99.90;;;;;;5068474;28;20082;-75
2022/04/26 07:17:27;;;;;;;13.10;5.70;;;10.30;99.90;;;;;;5060586;28;20443;-75
2022/04/26 07:19:52;;;;;;;14.98;6.30;;;10.30;99.90;;;;;;5068042;28;20099;-74
2022/04/26 07:22:18;;;;;;;15.77;5.93;;;10.30;99.90;;;;;;5069159;28;20369;-75
2022/04/26 07:24:46;;;;;;;12.10;5.57;;;10.40;99.90;;;;;;5067203;28;20534;-74
2022/04/26 07:27:12;;;;;;;11.73;5.05;;;10.40;99.90;;;;;;5059360;28;20033;-75
2022/04/26 07:29:41;;;;;;;17.83;6.20;;;10.50;99.90;;;;;;5054321;28;20104;-75
2022/04/26 07:32:07;;;;;;;10.35;4.93;;;10.50;99.90;;;;;;5068463;28;20439;-75
2022/04/26 07:34:33;;;;;;;11.75;5.40;;;10.60;99.90;;;;;;5064569;28;20115;-75
2022/04/26 07:36:59;;;;;;;8.38;4.85;;;10.70;99.90;;;;;;5062053;28;20640;-75
2022/04/26 07:39:26;;;;;;;12.77;5.35;;;10.80;99.90;;;;;;5073302;28;20071;-74
2022/04/26 07:41:52;;;;;;;9.52;4.22;;;10.90;99.90;;;;;;5073592;28;20473;-74
2022/04/26 07:44:18;;;;;;;13.00;5.22;;;11.00;99.90;;;;;;5074216;28;20047;-74
2022/04/26 07:46:46;;;;;;;9.65;4.70;;;11.00;99.90;;;;;;5069397;28;20438;-75
2022/04/26 07:49:13;;;;;;;8.82;4.10;;;10.90;99.90;;;;;;5068053;28;20028;-75
2022/04/26 07:51:38;;;;;;;8.32;3.55;;;10.90;99.90;;;;;;5074110;28;20363;-75
2022/04/26 07:54:05;;;;;;;10.60;4.18;;;11.00;99.90;;;;;;5055929;28;20051;-75
2022/04/26 07:56:31;;;;;;;7.93;3.45;;;11.00;99.90;;;;;;5072194;28;20034;-74
2022/04/26 07:58:58;;;;;;;13.25;4.57;;;11.00;99.90;;;;;;5066237;28;20024;-75
2022/04/26 08:01:25;;;;;;;11.13;3.90;;;11.00;99.90;;;;;;5073844;28;20522;-75
2022/04/26 08:03:51;;;;;;;10.40;3.40;;;11.00;99.90;;;;;;5071919;28;20051;-75
2022/04/26 08:06:16;;;;;;;9.82;3.90;;;11.10;99.90;;;;;;5055719;28;20048;-73
2022/04/26 08:08:42;;;;;;;12.18;3.90;;;11.30;99.90;;;;;;5072475;28;20064;-74
2022/04/26 08:11:11;;;;;;;8.40;4.07;;;11.30;99.90;;;;;;5069049;28;20507;-75
2022/04/26 08:13:38;;;;;;;10.27;3.92;;;11.30;99.90;;;;;;5060169;28;20077;-75
2022/04/26 08:16:04;;;;;;;8.00;3.30;;;11.30;99.90;;;;;;5060239;28;20485;-75
2022/04/26 08:18:30;;;;;;;7.72;3.33;;;11.30;99.90;;;;;;5070376;28;20032;-75
2022/04/26 08:20:55;;;;;;;11.18;3.90;;;11.30;99.90;;;;;;5067442;28;20056;-75
2022/04/26 08:23:21;;;;;;;10.63;4.13;;;11.30;99.90;;;;;;5072290;28;20407;-75
2022/04/26 08:28:33;;;;;;;8.85;3.67;;;11.30;99.90;;;;;;5072416;28;20036;-75
2022/04/26 08:31:00;;;;;;;8.88;3.22;;;11.30;99.90;;;;;;5068792;28;20368;-74
2022/04/26 08:33:30;;;;;;;6.55;3.00;;;11.40;99.90;;;;;;5069838;28;20032;-75
2022/04/26 08:35:56;;;;;;;8.90;3.10;;;11.70;99.90;;;;;;5072490;28;20047;-75
2022/04/26 08:38:22;;;;;;;10.32;2.70;;;11.90;99.90;;;;;;5072936;28;20032;-75
2022/04/26 08:40:48;;;;;;;8.48;2.47;;;12.00;99.90;;;;;;5071847;28;20109;-74
2022/04/26 08:43:13;;;;;;;5.38;2.60;;;12.10;99.90;;;;;;5057002;28;20503;-76
2022/04/26 08:45:40;;;;;;;7.35;2.30;;;12.10;99.90;;;;;;5071368;28;20039;-75
2022/04/26 08:51:00;;;;;;;6.90;2.88;;;12.10;99.90;;;;;;5067844;28;20028;-74
2022/04/26 08:53:27;;;;;;;4.97;2.15;;;12.10;99.90;;;;;;5054357;28;20064;-74
2022/04/26 08:55:54;;;;;;;7.75;2.15;;;12.20;99.90;;;;;;5070570;28;20028;-76
2022/04/26 08:58:21;;;;;;;6.40;2.05;;;12.30;99.90;;;;;;5072353;28;20503;-75
2022/04/26 09:01:25;;;;;;;7.63;2.20;;;12.20;99.90;;;;;;5059724;28;20025;-75
2022/04/26 09:03:59;;;;;;;10.82;2.20;;;12.20;99.90;;;;;;4971273;28;20038;-75
2022/04/26 09:06:40;;;;;;;5.30;1.90;;;12.30;99.90;;;;;;5055433;28;20043;-75
2022/04/26 09:09:18;;;;;;;7.07;2.50;;;12.50;99.70;;;;;;5071096;28;20086;-75
2022/04/26 09:11:45;;;;;;;7.13;1.80;;;12.60;98.80;;;;;;5060965;28;20028;-75
2022/04/26 09:14:28;;;;;;;6.85;2.10;;;12.50;98.10;;;;;;5070561;28;20112;-75
2022/04/26 09:17:08;;;;;;;8.35;2.05;;;12.40;98.30;;;;;;5069683;28;20025;-75
2022/04/26 09:19:53;;;;;;;4.85;1.60;;;12.50;98.60;;;;;;5070113;28;20032;-75
2022/04/26 09:22:21;;;;;;;4.50;1.50;;;12.40;98.30;;;;;;5068489;28;20039;-75
2022/04/26 09:25:04;;;;;;;7.03;1.35;;;12.40;98.20;;;;;;5071996;28;20036;-74
2022/04/26 09:27:30;;;;;;;;;;;12.40;97.80;;;;;;5069517;28;20035;-75
2022/04/26 09:29:56;;;;;;;4.03;1.55;;;12.30;97.80;;;;;;5071051;28;19912;-75
2022/04/26 09:32:25;;;;;;;4.30;1.67;;;12.20;97.40;;;;;;5066019;28;20075;-75
2022/04/26 09:34:51;;;;;;;5.90;1.70;;;12.20;97.40;;;;;;5066545;28;20112;-75
2022/04/26 09:37:17;;;;;;;6.15;1.73;;;12.20;97.20;;;;;;5070626;28;20123;-74
2022/04/26 09:40:02;;;;;;;3.00;1.30;;;12.30;97.00;;;;;;5055182;28;20498;-75
2022/04/26 09:42:32;;;;;;;6.47;1.75;;;12.60;96.60;;;;;;5067448;28;20031;-75
2022/04/26 09:45:10;;;;;;;6.50;1.35;;;12.90;96.00;;;;;;5053407;28;20050;-75
2022/04/26 09:47:38;;;;;;;4.82;1.50;;;13.10;95.70;;;;;;5071621;28;20081;-75
2022/04/26 09:50:14;;;;;;;7.10;1.77;;;13.30;95.40;;;;;;5071334;28;20024;-74
2022/04/26 09:52:41;;;;;;;8.30;1.80;;;13.50;94.70;;;;;;5070956;28;20025;-75
2022/04/26 09:55:08;;;;;;;5.38;1.30;;;13.60;93.30;;;;;;5071249;28;20038;-75
2022/04/26 09:57:36;;;;;;;5.97;1.65;;;13.70;93.50;;;;;;5071459;28;20024;-75
2022/04/26 10:00:10;;;;;;;3.83;1.17;;;13.80;93.70;;;;;;5070149;28;20115;-75
2022/04/26 10:02:38;;;;;;;3.65;1.00;;;14.00;93.40;;;;;;5071333;28;20387;-74
2022/04/26 10:05:05;;;;;;;5.35;1.48;;;14.10;91.30;;;;;;5069742;28;20079;-73
2022/04/26 10:07:44;;;;;;;2.90;1.52;;;14.00;90.20;;;;;;5067458;28;20025;-74
2022/04/26 10:10:10;;;;;;;5.30;1.20;;;14.00;89.10;;;;;;5040275;28;20103;-74
2022/04/26 10:12:37;;;;;;;4.20;1.13;;;14.00;88.90;;;;;;5071073;28;20029;-75
2022/04/26 10:15:04;;;;;;;8.02;1.83;;;13.90;88.20;;;;;;5070955;28;20024;-75
2022/04/26 10:17:32;;;;;;;2.78;1.08;;;13.90;88.80;;;;;;5070412;28;20035;-75
2022/04/26 10:20:01;;;;;;;3.05;1.45;;;14.00;87.20;;;;;;5063074;28;20124;-74
2022/04/26 10:22:55;;;;;;;4.95;1.70;;;14.00;86.80;;;;;;5064026;28;20024;-76
2022/04/26 10:25:23;;;;;;;3.75;1.50;;;14.10;84.40;;;;;;5071169;28;20024;-75
2022/04/26 10:28:16;;;;;;;4.13;1.30;;;14.20;84.60;;;;;;5070378;28;20021;-75
2022/04/26 10:30:49;;;;;;;3.45;1.35;;;14.30;83.20;;;;;;5070705;28;20564;-76
2022/04/26 10:33:36;;;;;;;3.53;1.30;;;14.30;81.20;;;;;;5070128;28;20473;-75
2022/04/26 10:36:23;;;;;;;4.20;1.20;;;14.30;81.90;;;;;;5070649;28;20052;-74
2022/04/26 10:39:07;;;;;;;2.92;1.10;;;14.30;81.80;;;;;;5070344;28;20028;-76
2022/04/26 10:41:38;;;;;;;4.28;1.20;;;14.30;82.70;;;;;;5070540;28;20024;-75
2022/04/26 10:44:13;;;;;;;4.47;2.17;;;14.50;81.40;;;;;;5071100;28;20062;-75
2022/04/26 10:46:40;;;;;;;5.85;1.85;;;14.60;80.90;;;;;;5070780;28;20399;-75
2022/04/26 10:49:24;;;;;;;7.05;2.05;;;14.70;80.40;;;;;;5071621;28;20123;-75
2022/04/26 10:51:56;;;;;;;4.70;1.83;;;15.00;79.80;;;;;;5069905;28;20025;-74
2022/04/26 10:54:40;;;;;;;;;;;15.20;79.30;;;;;;5071484;28;20021;-75
2022/04/26 10:57:06;;;;;;;5.00;1.48;;;15.20;79.80;;;;;;5070934;28;20249;-75
2022/04/26 10:59:31;;;;;;;6.28;1.95;;;15.10;80.70;;;;;;5070862;28;20041;-75
2022/04/26 11:01:57;;;;;;;5.78;2.50;;;15.20;80.30;;;;;;5073993;28;20032;-75
2022/04/26 11:04:23;;;;;;;4.72;1.92;;;15.30;80.50;;;;;;5074935;28;20033;-77
2022/04/26 11:06:48;;;;;;;4.70;1.83;;;15.40;81.40;;;;;;5073027;28;20044;-76
2022/04/26 11:09:16;;;;;;;4.78;1.52;;;15.40;80.90;;;;;;5074049;28;20074;-76
2022/04/26 11:11:53;;;;;;;4.53;1.60;;;15.40;80.90;;;;;;5071751;28;20039;-75
2022/04/26 11:14:20;;;;;;;3.92;1.80;;;15.20;80.90;;;;;;5072258;28;20480;-75
2022/04/26 11:16:56;;;;;;;4.13;1.63;;;15.10;78.90;;;;;;5073749;28;20028;-75
2022/04/26 11:19:33;;;;;;;5.10;2.25;;;15.10;78.10;;;;;;5071617;28;20035;-75
2022/04/26 11:22:14;;;;;;;3.30;1.65;;;15.10;77.60;;;;;;5059011;28;20449;-76
2022/04/26 11:30:31;;;;;;;4.05;2.10;;;16.20;77.40;;;;;;5069420;28;20082;-75
2022/04/26 11:33:04;;;;;;;5.50;2.50;;;16.40;76.40;;;;;;5073697;28;20039;-75
2022/04/26 11:35:30;;;;;;;4.18;1.98;;;16.30;75.30;;;;;;5074209;28;20036;-75
2022/04/26 11:38:14;;;;;;;5.57;1.80;;;16.10;75.20;;;;;;5068765;28;20069;-75
2022/04/26 11:40:58;;;;;;;4.15;1.60;;;15.90;75.70;;;;;;5071125;28;20020;-76
2022/04/26 11:43:27;;;;;;;4.22;2.08;;;16.00;76.60;;;;;;5073335;28;20040;-74
2022/04/26 11:45:55;;;;;;;6.90;2.33;;;15.90;75.00;;;;;;5072738;28;20047;-75
2022/04/26 11:48:26;;;;;;;5.85;2.72;;;15.70;75.00;;;;;;5073798;28;20442;-75
2022/04/26 11:50:54;;;;;;;4.07;2.20;;;15.60;75.30;;;;;;5073676;28;20028;-75
2022/04/26 11:53:21;;;;;;;4.15;1.73;;;15.50;74.80;;;;;;5073424;28;20056;-75
2022/04/26 11:55:56;;;;;;;5.50;2.17;;;15.40;74.50;;;;;;5056797;28;20036;-75
2022/04/26 11:58:32;;;;;;;4.53;2.22;;;15.60;74.40;;;;;;5070768;28;20511;-76
2022/04/26 12:00:59;;;;;;;3.30;1.50;;;15.60;74.80;;;;;;5070779;28;20033;-76
2022/04/26 12:03:37;;;;;;;4.63;1.60;;;15.60;74.40;;;;;;5073631;28;20442;-76
2022/04/26 12:06:07;;;;;;;5.15;1.98;;;15.50;74.30;;;;;;5072997;28;20035;-76
2022/04/26 12:08:40;;;;;;;7.43;2.10;;;15.50;74.90;;;;;;5068961;28;20391;-76
2022/04/26 12:11:24;;;;;;;3.80;1.85;;;15.60;75.30;;;;;;5071406;28;20036;-77
2022/04/26 12:14:00;;;;;;;4.47;1.90;;;15.70;75.70;;;;;;5068341;28;20028;-76
2022/04/26 12:16:26;;;;;;;4.25;1.65;;;15.70;74.80;;;;;;5066946;28;20407;-76
2022/04/26 12:18:54;;;;;;;6.10;2.08;;;15.70;74.40;;;;;;5071607;28;20055;-76
2022/04/26 12:21:21;;;;;;;3.35;1.45;;;15.70;74.10;;;;;;5072240;28;20434;-76
2022/04/26 12:23:48;;;;;;;3.17;1.52;;;15.80;74.80;;;;;;5070986;28;20028;-76
2022/04/26 12:26:15;;;;;;;3.67;1.20;;;15.90;74.20;;;;;;5072954;28;20032;-76
2022/04/26 12:28:51;;;;;;;5.25;1.50;;;15.90;73.20;;;;;;5063812;28;20529;-76
2022/04/26 12:31:25;;;;;;;3.35;1.27;;;16.00;72.50;;;;;;5075057;28;20114;-76
2022/04/26 12:34:17;;;;;;;3.28;1.60;;;16.10;73.00;;;;;;5067866;28;20492;-76
2022/04/26 12:37:03;;;;;;;5.50;1.50;;;16.00;71.00;;;;;;5072114;28;20024;-76
2022/04/26 12:39:42;;;;;;;5.10;1.23;;;15.90;71.30;;;;;;5068148;28;20024;-76
2022/04/26 12:42:16;;;;;;;3.85;1.45;;;15.90;71.30;;;;;;5065334;28;20135;-76
2022/04/26 12:44:56;;;;;;;4.30;1.20;;;15.90;71.20;;;;;;5065794;28;20036;-76
2022/04/26 12:50:29;;;;;;;4.95;1.30;;;16.00;70.70;;;;;;5070475;28;20035;-76
2022/04/26 12:52:56;;;;;;;4.22;1.10;;;16.00;70.50;;;;;;5071948;28;20105;-76
2022/04/26 12:55:42;;;;;;;4.72;1.30;;;16.00;70.10;;;;;;5071777;28;20104;-76
2022/04/26 12:58:10;;;;;;;2.97;1.25;;;16.10;69.60;;;;;;5071447;28;20081;-76
2022/04/26 13:00:41;;;;;;;3.53;1.38;;;16.10;69.60;;;;;;5070606;28;20047;-76
2022/04/26 13:03:07;;;;;;;5.38;1.33;;;16.00;69.50;;;;;;5071465;28;20036;-76
2022/04/26 13:05:41;;;;;;;5.75;1.50;;;16.00;69.50;;;;;;5067009;28;20089;-76
2022/04/26 13:08:09;;;;;;;7.95;1.88;;;15.90;69.90;;;;;;5069957;28;20051;-76
2022/04/26 13:10:34;;;;;;;6.35;1.88;;;15.90;71.10;;;;;;5069689;28;20051;-75
2022/04/26 13:13:00;;;;;;;5.20;1.50;;;15.90;70.20;;;;;;5071162;28;20016;-75
2022/04/26 13:15:27;;;;;;;5.20;1.63;;;15.80;71.00;;;;;;5071664;28;20024;-75
2022/04/26 13:17:53;;;;;;;6.57;1.63;;;15.70;70.70;;;;;;5072079;28;20376;-75
2022/04/26 13:20:19;;;;;;;5.63;1.83;;;15.70;70.40;;;;;;5070566;28;20094;-74
2022/04/26 13:22:45;;;;;;;4.72;1.63;;;15.60;71.00;;;;;;5071476;28;20044;-75
2022/04/26 13:25:11;;;;;;;7.13;1.73;;;15.60;71.00;;;;;;5071091;28;20032;-74
2022/04/26 13:27:38;;;;;;;6.60;1.42;;;15.70;70.30;;;;;;5071910;28;20035;-74
2022/04/26 13:30:05;;;;;;;5.68;1.83;;;15.70;71.40;;;;;;5070314;28;20064;-74
2022/04/26 13:32:31;;;;;;;2.95;1.88;;;15.80;70.30;;;;;;5065586;28;20032;-75
2022/04/26 13:34:58;;;;;;;3.80;1.90;;;15.80;70.50;;;;;;5069127;28;20025;-76
2022/04/26 13:37:24;;;;;;;2.75;1.85;;;15.80;70.50;;;;;;5071199;28;20028;-75
2022/04/26 13:39:50;;;;;;;4.90;1.90;;;15.90;70.50;;;;;;5069768;28;20610;-76
2022/04/26 13:42:17;;;;;;;5.75;1.60;;;15.90;70.50;;;;;;5070297;28;20062;-76
2022/04/26 13:44:43;;;;;;;3.20;1.77;;;15.90;70.10;;;;;;5069307;28;20501;-74
2022/04/26 13:47:09;;;;;;;4.38;2.00;;;15.90;69.00;;;;;;5051600;28;20166;-74
2022/04/26 13:49:35;;;;;;;5.18;1.92;;;15.70;69.00;;;;;;5069036;28;20025;-74
2022/04/26 13:52:05;;;;;;;4.25;1.85;;;15.70;69.50;;;;;;5071747;28;20349;-74
2022/04/26 13:54:31;;;;;;;4.65;1.52;;;15.70;69.00;;;;;;5071061;28;20522;-75
2022/04/26 13:56:56;;;;;;;4.30;1.63;;;15.60;69.20;;;;;;5090799;28;20020;-75
2022/04/26 13:59:23;;;;;;;3.28;1.52;;;15.70;69.20;;;;;;5071380;28;20029;-74
2022/04/26 14:01:50;;;;;;;6.75;2.47;;;15.80;69.80;;;;;;5071381;28;20025;-75
2022/04/26 14:04:16;;;;;;;5.38;1.40;;;15.90;68.90;;;;;;5070388;28;20040;-75
2022/04/26 14:06:42;;;;;;;17.27;2.58;;;16.10;68.60;;;;;;5069451;28;20021;-75
2022/04/26 14:09:07;;;;;;;3.38;1.50;;;16.20;67.70;;;;;;5065603;28;20040;-75
2022/04/26 14:11:33;;;;;;;8.80;1.90;;;16.30;68.00;;;;;;5070704;28;20032;-75
2022/04/26 14:22:13;;;;;;;4.15;1.70;;;16.30;67.30;;;;;;5071233;28;20561;-75
2022/04/26 14:24:39;;;;;;;3.97;1.52;;;16.10;68.40;;;;;;5070588;28;20044;-75
2022/04/26 14:27:05;;;;;;;4.13;1.52;;;16.00;68.10;;;;;;5070666;28;20378;-75
2022/04/26 14:29:32;;;;;;;4.40;1.70;;;16.00;67.90;;;;;;5071928;28;20063;-75
2022/04/26 14:31:58;;;;;;;5.45;2.05;;;16.00;67.60;;;;;;5070508;28;20666;-75
2022/04/26 14:34:26;;;;;;;3.80;1.58;;;16.00;67.40;;;;;;5070977;28;20108;-74
2022/04/26 14:36:52;;;;;;;5.93;1.63;;;15.90;67.10;;;;;;5070675;28;20024;-75
2022/04/26 14:39:20;;;;;;;7.50;1.67;;;15.90;67.30;;;;;;5071009;28;20056;-76
2022/04/26 14:41:46;;;;;;;2.03;1.20;;;15.90;67.60;;;;;;5070816;28;20032;-76
2022/04/26 14:44:12;;;;;;;3.63;1.52;;;15.90;68.80;;;;;;5070982;28;20066;-75
2022/04/26 14:46:38;;;;;;;5.93;1.85;;;16.00;68.40;;;;;;5069233;28;20117;-76
2022/04/26 14:49:06;;;;;;;5.20;1.70;;;15.80;68.10;;;;;;5059886;28;20064;-76
2022/04/26 14:51:34;;;;;;;3.80;1.58;;;15.70;68.30;;;;;;5059521;28;20081;-76
2022/04/26 14:54:00;;;;;;;3.70;1.50;;;15.60;68.20;;;;;;5069710;28;20119;-76
2022/04/26 14:56:25;;;;;;;5.63;1.67;;;15.60;69.00;;;;;;5066748;28;20146;-76
2022/04/26 14:58:53;;;;;;;7.95;1.40;;;15.60;69.10;;;;;;5068092;28;20032;-76
2022/04/26 15:01:18;;;;;;;2.75;1.33;;;15.50;70.10;;;;;;5069403;28;20362;-76
2022/04/26 15:03:45;;;;;;;4.10;1.42;;;15.50;69.90;;;;;;5080527;28;20082;-76
2022/04/26 15:06:11;;;;;;;3.90;1.48;;;15.60;69.30;;;;;;5069850;28;20104;-76
2022/04/26 15:11:21;;;;;;;4.15;1.58;;;15.70;69.90;;;;;;5070551;28;20070;-73
2022/04/26 15:16:39;;;;;;;4.55;1.30;;;15.80;69.70;;;;;;5068611;28;20408;-74
2022/04/26 15:19:12;;;;;;;2.95;1.20;;;15.70;69.40;;;;;;5068446;28;20227;-75
2022/04/26 15:21:39;;;;;;;5.22;1.70;;;15.70;70.00;;;;;;5075397;28;20055;-75
2022/04/26 15:24:05;;;;;;;4.00;1.52;;;15.60;70.10;;;;;;5062651;28;20044;-75
2022/04/26 15:26:31;;;;;;;6.25;1.50;;;15.50;70.00;;;;;;5067814;28;20040;-75
2022/04/26 15:28:58;;;;;;;6.68;1.50;;;15.40;70.10;;;;;;5066997;28;20025;-76
2022/04/26 15:31:24;;;;;;;5.65;1.70;;;15.20;70.50;;;;;;5062980;28;20056;-75
2022/04/26 15:33:51;;;;;;;5.88;2.10;;;15.20;70.70;;;;;;5068617;28;20028;-75
2022/04/26 15:36:17;;;;;;;4.78;1.60;;;15.20;70.60;;;;;;5069918;28;20048;-76
2022/04/26 15:38:43;;;;;;;4.20;1.48;;;15.10;71.30;;;;;;5073119;28;20043;-76
2022/04/26 15:41:10;;;;;;;4.10;1.30;;;15.20;71.40;;;;;;5070374;28;20028;-75
2022/04/26 15:43:37;;;;;;;5.68;1.80;;;15.20;71.00;;;;;;5069532;28;20127;-75
2022/04/26 15:46:04;;;;;;;5.55;1.70;;;15.10;71.10;;;;;;5070121;28;20024;-75
2022/04/26 15:48:29;;;;;;;3.85;1.52;;;15.20;71.30;;;;;;5052779;28;20040;-76
2022/04/26 15:50:56;;;;;;;3.97;1.63;;;15.20;71.30;;;;;;5053888;28;20040;-75
2022/04/26 15:53:22;;;;;;;3.00;1.15;;;15.40;71.10;;;;;;5072937;28;20052;-75
2022/04/26 15:55:48;;;;;;;3.80;1.48;;;15.70;71.30;;;;;;5072970;28;20028;-76
2022/04/26 15:58:13;;;;;;;3.13;1.15;;;16.10;69.80;;;;;;5056605;28;20505;-72
2022/04/26 16:00:41;;;;;;;4.13;1.52;;;16.10;68.30;;;;;;5070508;28;20039;-73
2022/04/26 16:03:07;;;;;;;3.33;1.10;;;16.00;68.40;;;;;;5072835;28;20338;-73
2022/04/26 16:05:33;;;;;;;3.10;0.93;;;15.90;68.60;;;;;;5071495;28;20118;-73
2022/04/26 16:07:59;;;;;;;2.58;0.90;;;15.70;67.70;;;;;;5058450;28;20397;-73
2022/04/26 16:21:30;;;;;;;4.05;1.17;;;14.90;67.90;;;;;;5071435;28;20404;-73
2022/04/26 16:23:56;;;;;;;4.63;1.00;;;14.70;67.90;;;;;;5070448;28;20436;-74
2022/04/26 16:26:22;;;;;;;4.22;1.10;;;14.50;68.10;;;;;;5065963;28;20025;-74
2022/04/26 16:28:51;;;;;;;5.38;0.93;;;14.40;68.60;;;;;;5065155;28;20028;-73
2022/04/26 16:31:18;;;;;;;3.22;1.58;;;14.40;68.40;;;;;;5063572;28;20013;-75
2022/04/26 16:33:44;;;;;;;3.25;1.10;;;14.40;68.30;;;;;;5060231;28;20385;-75
2022/04/26 16:36:11;;;;;;;3.05;0.82;;;14.40;67.70;;;;;;5072008;28;20032;-75
2022/04/26 16:38:39;;;;;;;2.50;0.70;;;14.40;67.80;;;;;;5072359;28;20086;-74
2022/04/26 16:41:05;;;;;;;1.95;0.80;;;14.30;67.80;;;;;;5073214;28;20056;-75
2022/04/26 16:43:32;;;;;;;2.08;0.80;;;14.30;67.00;;;;;;5072375;28;20476;-75
2022/04/26 16:45:58;;;;;;;5.93;1.00;;;14.20;67.10;;;;;;5079126;28;20032;-75
2022/04/26 16:48:24;;;;;;;3.45;0.93;;;14.20;67.20;;;;;;5067084;28;20454;-75
2022/04/26 16:50:49;;;;;;;4.88;1.17;;;14.30;67.40;;;;;;5072109;28;20044;-74
2022/04/26 16:53:15;;;;;;;1.40;0.75;;;14.30;67.60;;;;;;5072290;28;20039;-74
2022/04/26 16:55:41;;;;;;;2.92;0.85;;;14.30;67.40;;;;;;5070926;28;20103;-74
2022/04/26 16:58:06;;;;;;;2.45;0.60;;;14.30;66.90;;;;;;5072114;28;20024;-74
2022/04/26 17:00:32;;;;;;;4.80;0.80;;;14.30;66.80;;;;;;5061083;28;20075;-75
2022/04/26 17:02:58;;;;;;;3.28;0.70;;;14.20;66.90;;;;;;5062819;28;20445;-75
2022/04/26 17:05:26;;;;;;;2.95;0.70;;;14.10;66.40;;;;;;5066567;28;20459;-74
2022/04/26 17:07:54;;;;;;;2.40;0.70;;;14.00;66.50;;;;;;5052128;28;20461;-74
2022/04/26 17:10:20;;;;;;;5.70;0.82;;;13.70;66.50;;;;;;5056977;28;20021;-75